createdAt,value
2023-05-10T00:00:19.220Z,2.30
2023-05-10T00:02:47.560Z,2.67
2023-05-10T00:05:17.146Z,1.57
2023-05-10T00:07:45.841Z,2.70
2023-05-10T00:10:14.142Z,2.20
2023-05-10T00:12:42.470Z,2.50
2023-05-10T00:15:11.492Z,2.33
2023-05-10T00:17:39.642Z,2.90
2023-05-10T00:20:08.577Z,2.40
2023-05-10T00:22:38.069Z,1.87
2023-05-10T00:25:07.393Z,2.30
2023-05-10T00:27:35.755Z,2.43
2023-05-10T00:30:04.132Z,2.13
2023-05-10T00:32:32.286Z,2.43
2023-05-10T00:35:00.749Z,2.43
2023-05-10T00:37:28.932Z,3.17
2023-05-10T00:39:58.262Z,2.37
2023-05-10T00:42:26.260Z,2.40
2023-05-10T00:44:55.746Z,2.33
2023-05-10T00:47:23.983Z,2.50
2023-05-10T00:49:52.226Z,2.63
2023-05-10T00:52:20.479Z,3.00
2023-05-10T00:54:49.392Z,2.80
2023-05-10T00:57:20.063Z,2.07
2023-05-10T00:59:48.171Z,2.50
2023-05-10T01:02:16.260Z,2.40
2023-05-10T01:04:45.324Z,1.93
2023-05-10T01:07:13.408Z,2.53
2023-05-10T01:09:41.543Z,2.77
2023-05-10T01:12:09.832Z,2.23
2023-05-10T01:14:39.537Z,2.50
2023-05-10T01:17:10.337Z,2.50
2023-05-10T01:19:39.201Z,2.87
2023-05-10T01:22:19.054Z,2.43
2023-05-10T01:25:18.444Z,2.97
2023-05-10T01:28:17.683Z,2.77
2023-05-10T01:31:16.494Z,2.57
2023-05-10T01:33:52.529Z,1.90
2023-05-10T01:36:28.966Z,2.63
2023-05-10T01:39:04.624Z,2.37
2023-05-10T01:41:41.828Z,2.83
2023-05-10T01:44:17.310Z,2.63
2023-05-10T01:46:45.410Z,2.87
2023-05-10T01:49:31.098Z,3.13
2023-05-10T01:52:05.956Z,2.63
2023-05-10T01:54:36.392Z,2.70
2023-05-10T01:57:08.469Z,2.57
2023-05-10T01:59:41.609Z,2.40
2023-05-10T02:02:12.834Z,2.40
2023-05-10T02:04:43.961Z,2.50
2023-05-10T02:07:12.528Z,2.07
2023-05-10T02:09:40.690Z,2.90
2023-05-10T02:12:09.859Z,2.77
2023-05-10T02:14:40.607Z,2.90
2023-05-10T02:17:10.783Z,2.40
2023-05-10T02:19:42.532Z,2.70
2023-05-10T02:22:12.351Z,2.50
2023-05-10T02:24:41.754Z,2.27
2023-05-10T02:27:11.764Z,2.37
2023-05-10T02:29:40.793Z,2.70
2023-05-10T02:32:10.221Z,2.27
2023-05-10T02:34:38.958Z,2.10
2023-05-10T02:37:08.081Z,2.50
2023-05-10T02:39:37.892Z,1.93
2023-05-10T02:42:07.372Z,2.47
2023-05-10T02:44:37.185Z,4.13
2023-05-10T02:47:05.288Z,2.53
2023-05-10T02:49:33.317Z,2.40
2023-05-10T02:52:07.936Z,3.10
2023-05-10T02:54:45.776Z,2.57
2023-05-10T02:57:20.255Z,2.80
2023-05-10T02:59:48.395Z,3.90
2023-05-10T03:02:16.911Z,2.93
2023-05-10T03:04:45.101Z,2.63
2023-05-10T03:07:13.222Z,3.10
2023-05-10T03:09:43.706Z,3.10
2023-05-10T03:12:20.612Z,3.10
2023-05-10T03:14:59.507Z,2.80
2023-05-10T03:17:32.951Z,2.50
2023-05-10T03:20:06.033Z,2.23
2023-05-10T03:22:38.220Z,2.10
2023-05-10T03:25:15.568Z,2.47
2023-05-10T03:27:45.656Z,2.33
2023-05-10T03:30:15.517Z,2.83
2023-05-10T03:32:43.752Z,2.93
2023-05-10T03:35:12.665Z,2.20
2023-05-10T03:37:40.937Z,2.50
2023-05-10T03:40:11.985Z,2.70
2023-05-10T03:42:42.602Z,2.13
2023-05-10T03:45:11.761Z,2.50
2023-05-10T03:47:39.747Z,2.77
2023-05-10T03:50:09.094Z,2.40
2023-05-10T03:52:37.436Z,2.50
2023-05-10T03:55:06.096Z,2.40
2023-05-10T03:57:35.513Z,1.90
2023-05-10T04:00:03.796Z,2.63
2023-05-10T04:02:43.210Z,1.80
2023-05-10T04:05:17.280Z,2.63
2023-05-10T04:07:45.903Z,2.30
2023-05-10T04:10:14.335Z,2.67
2023-05-10T04:12:44.224Z,2.50
2023-05-10T04:15:12.508Z,3.30
2023-05-10T04:17:40.761Z,2.70
2023-05-10T04:20:09.748Z,2.93
2023-05-10T04:22:37.974Z,1.93
2023-05-10T04:25:07.110Z,2.97
2023-05-10T04:27:35.186Z,2.43
2023-05-10T04:30:04.992Z,3.10
2023-05-10T04:32:33.479Z,2.77
2023-05-10T04:35:03.928Z,2.90
2023-05-10T04:37:32.019Z,2.43
2023-05-10T04:40:00.944Z,4.10
2023-05-10T04:42:28.953Z,3.20
2023-05-10T04:44:56.968Z,2.27
2023-05-10T04:47:26.365Z,2.70
2023-05-10T04:49:54.428Z,2.40
2023-05-10T04:52:22.587Z,2.00
2023-05-10T04:54:50.583Z,2.40
2023-05-10T04:57:18.577Z,2.43
2023-05-10T04:59:48.026Z,2.00
2023-05-10T05:02:17.670Z,2.80
2023-05-10T05:04:47.020Z,3.07
2023-05-10T05:07:14.995Z,2.63
2023-05-10T05:09:43.014Z,3.20
2023-05-10T05:12:14.860Z,2.30
2023-05-10T05:14:42.989Z,2.40
2023-05-10T05:17:11.035Z,3.10
2023-05-10T05:19:39.217Z,2.40
2023-05-10T05:22:10.134Z,3.20
2023-05-10T05:24:39.068Z,3.40
2023-05-10T05:27:07.939Z,2.97
2023-05-10T05:29:36.036Z,4.20
2023-05-10T05:32:04.409Z,2.93
2023-05-10T05:34:32.673Z,2.83
2023-05-10T05:37:00.664Z,2.20
2023-05-10T05:39:30.042Z,2.20
2023-05-10T05:41:58.001Z,3.07
2023-05-10T05:44:26.575Z,2.80
2023-05-10T05:46:54.639Z,2.30
2023-05-10T05:49:22.772Z,2.70
2023-05-10T05:51:51.375Z,2.90
2023-05-10T05:54:19.370Z,3.00
2023-05-10T05:56:48.799Z,2.63
2023-05-10T05:59:16.758Z,2.00
2023-05-10T06:01:44.976Z,2.93
2023-05-10T06:04:13.708Z,2.47
2023-05-10T06:06:41.711Z,2.60
2023-05-10T06:09:09.756Z,2.23
2023-05-10T06:11:38.450Z,2.83
2023-05-10T06:14:08.113Z,2.60
2023-05-10T06:16:36.340Z,2.00
2023-05-10T06:19:04.935Z,2.13
2023-05-10T06:21:33.669Z,2.70
2023-05-10T06:24:01.654Z,2.60
2023-05-10T06:26:29.757Z,2.90
2023-05-10T06:28:57.741Z,2.57
2023-05-10T06:31:27.188Z,2.70
2023-05-10T06:33:56.754Z,2.90
2023-05-10T06:36:25.940Z,2.60
2023-05-10T06:38:54.430Z,3.23
2023-05-10T06:41:24.620Z,2.53
2023-05-10T06:43:53.030Z,2.80
2023-05-10T06:46:21.153Z,2.77
2023-05-10T06:48:50.609Z,2.40
2023-05-10T06:51:18.989Z,2.70
2023-05-10T06:53:47.038Z,2.60
2023-05-10T06:56:15.364Z,2.93
2023-05-10T06:58:43.424Z,3.10
2023-05-10T07:01:11.748Z,2.63
2023-05-10T07:03:39.961Z,2.83
2023-05-10T07:06:15.705Z,3.13
2023-05-10T07:08:50.183Z,2.47
2023-05-10T07:11:18.179Z,2.63
2023-05-10T07:13:47.426Z,3.10
2023-05-10T07:16:15.444Z,2.50
2023-05-10T07:18:43.509Z,2.80
2023-05-10T07:21:12.974Z,3.00
2023-05-10T07:23:42.466Z,2.53
2023-05-10T07:26:11.852Z,3.10
2023-05-10T07:28:40.978Z,2.80
2023-05-10T07:31:08.973Z,4.30
2023-05-10T07:33:37.088Z,3.80
2023-05-10T07:36:05.114Z,3.50
2023-05-10T07:38:34.422Z,4.00
2023-05-10T07:41:02.352Z,3.60
2023-05-10T07:43:30.462Z,5.70
2023-05-10T07:46:00.777Z,4.07
2023-05-10T07:48:28.838Z,4.07
2023-05-10T07:50:56.861Z,4.23
2023-05-10T07:53:24.858Z,3.83
2023-05-10T07:55:59.051Z,4.10
2023-05-10T07:58:27.821Z,3.47
2023-05-10T08:00:55.948Z,3.83
2023-05-10T08:03:24.026Z,3.87
2023-05-10T08:05:52.147Z,2.90
2023-05-10T08:08:20.997Z,4.30
2023-05-10T08:10:48.971Z,4.73
2023-05-10T08:13:18.315Z,3.07
2023-05-10T08:15:46.311Z,4.67
2023-05-10T08:18:14.377Z,4.20
2023-05-10T08:20:42.362Z,3.53
2023-05-10T08:23:10.736Z,3.50
2023-05-10T08:25:38.713Z,4.13
2023-05-10T08:28:06.857Z,5.67
2023-05-10T08:30:36.124Z,7.97
2023-05-10T08:33:04.114Z,5.37
2023-05-10T08:35:32.486Z,4.27
2023-05-10T08:38:00.559Z,3.50
2023-05-10T08:40:29.180Z,3.67
2023-05-10T08:43:00.882Z,4.00
2023-05-10T08:45:33.952Z,4.03
2023-05-10T08:48:03.996Z,3.87
2023-05-10T08:50:32.410Z,4.40
2023-05-10T08:53:05.771Z,3.97
2023-05-10T08:55:34.893Z,4.70
2023-05-10T08:58:03.102Z,3.07
2023-05-10T09:00:31.655Z,3.13
2023-05-10T09:03:00.150Z,2.87
2023-05-10T09:05:29.977Z,3.77
2023-05-10T09:07:58.026Z,3.33
2023-05-10T09:10:28.251Z,3.40
2023-05-10T09:12:59.372Z,3.80
2023-05-10T09:15:28.008Z,2.97
2023-05-10T09:17:56.932Z,3.07
2023-05-10T09:20:24.920Z,3.50
2023-05-10T09:22:54.521Z,3.60
2023-05-10T09:25:23.637Z,2.60
2023-05-10T09:27:51.896Z,3.13
2023-05-10T09:30:26.472Z,2.90
2023-05-10T09:32:55.647Z,3.80
2023-05-10T09:35:26.584Z,2.87
2023-05-10T09:37:59.578Z,2.97
2023-05-10T09:40:29.036Z,2.80
2023-05-10T09:42:58.963Z,3.20
2023-05-10T09:45:29.098Z,2.83
2023-05-10T09:47:57.591Z,3.00
2023-05-10T09:50:26.162Z,3.20
2023-05-10T09:52:55.985Z,3.03
2023-05-10T09:55:26.894Z,2.90
2023-05-10T09:58:02.145Z,3.07
2023-05-10T10:00:30.602Z,2.70
2023-05-10T10:02:59.947Z,2.57
2023-05-10T10:05:30.680Z,3.10
2023-05-10T10:08:00.153Z,3.17
2023-05-10T10:10:30.218Z,2.50
2023-05-10T10:12:58.273Z,3.00
2023-05-10T10:15:27.073Z,2.60
2023-05-10T10:17:55.988Z,2.60
2023-05-10T10:20:26.053Z,3.33
2023-05-10T10:22:55.103Z,2.77
2023-05-10T10:25:23.837Z,3.77
2023-05-10T10:28:06.451Z,3.60
2023-05-10T10:30:43.368Z,3.33
2023-05-10T10:33:30.623Z,3.13
2023-05-10T10:36:03.036Z,2.30
2023-05-10T10:38:40.049Z,3.60
2023-05-10T10:41:13.029Z,2.83
2023-05-10T10:43:42.616Z,3.50
2023-05-10T10:46:15.837Z,3.50
2023-05-10T10:48:49.013Z,2.93
2023-05-10T10:51:17.170Z,3.80
2023-05-10T10:53:45.670Z,2.27
2023-05-10T10:56:16.276Z,2.57
2023-05-10T10:58:53.473Z,2.90
2023-05-10T11:01:21.892Z,2.70
2023-05-10T11:04:21.791Z,1.60
2023-05-10T11:06:51.221Z,2.37
2023-05-10T11:09:19.466Z,1.57
2023-05-10T11:11:52.965Z,2.20
2023-05-10T11:14:24.263Z,1.97
2023-05-10T11:16:52.452Z,1.80
2023-05-10T11:19:21.118Z,1.67
2023-05-10T11:21:51.227Z,1.60
2023-05-10T11:24:21.670Z,1.70
2023-05-10T11:26:52.364Z,1.43
2023-05-10T11:29:20.960Z,1.90
2023-05-10T11:31:51.677Z,1.43
2023-05-10T11:34:26.694Z,2.00
2023-05-10T11:36:57.892Z,1.60
2023-05-10T11:39:29.537Z,1.80
2023-05-10T11:41:58.248Z,1.97
2023-05-10T11:44:31.768Z,2.07
2023-05-10T11:47:02.549Z,1.70
2023-05-10T11:49:30.781Z,1.47
2023-05-10T11:52:06.549Z,1.47
2023-05-10T11:54:35.844Z,1.57
2023-05-10T11:57:04.851Z,1.60
2023-05-10T11:59:32.945Z,1.93
2023-05-10T12:02:02.644Z,1.30
2023-05-10T12:04:31.221Z,1.87
2023-05-10T12:06:59.720Z,1.40
2023-05-10T12:09:42.595Z,1.57
2023-05-10T12:12:11.159Z,1.40
2023-05-10T12:14:39.255Z,1.30
2023-05-10T12:17:13.272Z,1.47
2023-05-10T12:19:41.806Z,1.50
2023-05-10T12:22:09.839Z,0.97
2023-05-10T12:24:39.148Z,1.87
2023-05-10T12:27:09.071Z,1.63
2023-05-10T12:29:37.166Z,1.70
2023-05-10T12:32:05.291Z,1.50
2023-05-10T12:34:37.113Z,0.97
2023-05-10T12:37:06.250Z,1.00
2023-05-10T12:39:41.955Z,0.70
2023-05-10T12:42:10.084Z,1.20
2023-05-10T12:44:38.098Z,1.53
2023-05-10T12:47:06.824Z,1.13
2023-05-10T12:49:36.465Z,1.23
2023-05-10T12:52:04.653Z,1.07
2023-05-10T12:54:32.697Z,1.17
2023-05-10T12:57:00.741Z,1.10
2023-05-10T12:59:28.674Z,1.00
2023-05-10T13:01:56.725Z,1.10
2023-05-10T13:04:24.772Z,1.27
2023-05-10T13:06:54.129Z,1.17
2023-05-10T13:09:22.287Z,0.93
2023-05-10T13:11:51.170Z,0.90
2023-05-10T13:14:21.317Z,0.80
2023-05-10T13:16:49.327Z,0.90
2023-05-10T13:19:18.266Z,0.93
2023-05-10T13:21:46.407Z,0.67
2023-05-10T13:24:15.804Z,1.20
2023-05-10T13:26:44.714Z,1.20
2023-05-10T13:29:12.764Z,1.60
2023-05-10T13:31:40.938Z,1.30
2023-05-10T13:34:09.039Z,1.30
2023-05-10T13:36:37.107Z,1.53
2023-05-10T13:39:06.313Z,2.50
2023-05-10T13:41:35.715Z,4.47
2023-05-10T13:44:03.706Z,11.97
2023-05-10T13:46:32.036Z,10.90
2023-05-10T13:49:00.028Z,7.23
2023-05-10T13:51:28.181Z,6.70
2023-05-10T13:53:56.196Z,3.00
2023-05-10T13:56:24.160Z,6.10
2023-05-10T13:58:53.520Z,4.90
2023-05-10T14:01:21.713Z,1.87
2023-05-10T14:03:50.031Z,1.57
2023-05-10T14:06:18.325Z,1.40
2023-05-10T14:08:46.682Z,2.43
2023-05-10T14:11:14.702Z,1.63
2023-05-10T14:13:42.981Z,1.63
2023-05-10T14:16:12.544Z,1.90
2023-05-10T14:18:40.534Z,2.33
2023-05-10T14:21:08.534Z,1.67
2023-05-10T14:23:42.360Z,1.83
2023-05-10T14:26:10.437Z,1.23
2023-05-10T14:28:38.421Z,1.97
2023-05-10T14:31:06.548Z,1.77
2023-05-10T14:33:35.878Z,2.07
2023-05-10T14:36:04.519Z,1.73
2023-05-10T14:38:32.467Z,2.43
2023-05-10T14:41:02.772Z,2.33
2023-05-10T14:43:31.457Z,2.47
2023-05-10T14:45:59.730Z,2.23
2023-05-10T14:48:27.705Z,2.50
2023-05-10T14:50:57.039Z,2.47
2023-05-10T14:53:25.009Z,2.30
2023-05-10T14:55:53.270Z,1.93
2023-05-10T14:58:21.219Z,1.80
2023-05-10T15:00:49.676Z,2.30
2023-05-10T15:03:18.318Z,2.40
2023-05-10T15:05:47.017Z,2.00
2023-05-10T15:08:16.379Z,2.17
2023-05-10T15:10:44.422Z,1.90
2023-05-10T15:13:12.422Z,1.43
2023-05-10T15:15:40.511Z,2.13
2023-05-10T15:18:08.618Z,1.80
2023-05-10T15:20:36.726Z,2.30
2023-05-10T15:23:04.680Z,1.93
2023-05-10T15:25:35.870Z,1.57
2023-05-10T15:28:04.028Z,2.57
2023-05-10T15:30:32.221Z,2.70
2023-05-10T15:33:00.301Z,2.30
2023-05-10T15:35:28.430Z,2.13
2023-05-10T15:37:56.365Z,2.30
2023-05-10T15:40:24.327Z,3.30
2023-05-10T15:42:53.589Z,1.63
2023-05-10T15:45:22.100Z,1.70
2023-05-10T15:47:50.189Z,1.40
2023-05-10T15:50:18.278Z,1.40
2023-05-10T15:52:46.242Z,1.40
2023-05-10T15:55:14.742Z,1.00
2023-05-10T15:57:43.798Z,1.37
2023-05-10T16:00:14.612Z,1.40
2023-05-10T16:02:42.937Z,2.20
2023-05-10T16:05:11.881Z,2.20
2023-05-10T16:07:40.332Z,1.20
2023-05-10T16:10:10.827Z,1.97
2023-05-10T16:12:39.615Z,2.30
2023-05-10T16:15:08.742Z,2.17
2023-05-10T16:17:38.401Z,1.63
2023-05-10T16:20:07.995Z,2.60
2023-05-10T16:22:36.790Z,2.30
2023-05-10T16:25:05.397Z,2.83
2023-05-10T16:27:33.453Z,2.50
2023-05-10T16:30:01.696Z,1.93
2023-05-10T16:32:29.804Z,1.93
2023-05-10T16:35:00.243Z,1.70
2023-05-10T16:37:29.173Z,2.10
2023-05-10T16:39:57.134Z,2.40
2023-05-10T16:42:26.066Z,2.83
2023-05-10T16:44:55.087Z,2.93
2023-05-10T16:47:23.170Z,2.27
2023-05-10T16:49:51.143Z,1.90
2023-05-10T16:52:20.471Z,2.10
2023-05-10T16:54:48.425Z,1.87
2023-05-10T16:57:17.373Z,2.30
2023-05-10T16:59:45.336Z,2.53
2023-05-10T17:02:13.335Z,2.30
2023-05-10T17:04:41.724Z,2.27
2023-05-10T17:07:09.971Z,2.17
2023-05-10T17:09:39.404Z,2.33
2023-05-10T17:12:07.445Z,2.20
2023-05-10T17:14:36.211Z,1.83
2023-05-10T17:17:04.619Z,2.17
2023-05-10T17:19:32.550Z,2.87
2023-05-10T17:22:00.589Z,3.70
2023-05-10T17:24:29.744Z,2.87
2023-05-10T17:27:00.537Z,2.53
2023-05-10T17:29:29.125Z,2.77
2023-05-10T17:31:57.368Z,3.30
2023-05-10T17:34:25.591Z,2.70
2023-05-10T17:36:53.754Z,2.17
2023-05-10T17:39:21.745Z,1.70
2023-05-10T17:41:50.153Z,1.90
2023-05-10T17:44:19.525Z,1.70
2023-05-10T17:46:47.692Z,1.90
2023-05-10T17:49:16.220Z,1.70
2023-05-10T17:51:47.908Z,1.70
2023-05-10T17:54:16.092Z,1.90
2023-05-10T17:56:44.047Z,1.63
2023-05-10T17:59:11.975Z,2.13
2023-05-10T18:01:41.507Z,2.17
2023-05-10T18:04:09.532Z,2.10
2023-05-10T18:06:38.206Z,1.90
2023-05-10T18:09:07.323Z,2.10
2023-05-10T18:11:36.450Z,1.83
2023-05-10T18:14:04.808Z,2.37
2023-05-10T18:16:32.883Z,2.13
2023-05-10T18:19:02.378Z,2.40
2023-05-10T18:21:31.339Z,2.83
2023-05-10T18:23:59.314Z,4.50
2023-05-10T18:26:27.759Z,4.17
2023-05-10T18:28:55.763Z,4.90
2023-05-10T18:31:24.012Z,4.40
2023-05-10T18:33:52.014Z,4.80
2023-05-10T18:36:21.905Z,4.97
2023-05-10T18:38:49.932Z,4.20
2023-05-10T18:41:18.741Z,3.17
2023-05-10T18:43:46.716Z,3.03
2023-05-10T18:46:15.041Z,5.23
2023-05-10T18:48:43.060Z,3.20
2023-05-10T18:51:12.498Z,4.13
2023-05-10T18:53:41.879Z,3.40
2023-05-10T18:56:10.000Z,4.50
2023-05-10T18:58:38.480Z,4.30
2023-05-10T19:01:06.699Z,4.87
2023-05-10T19:03:34.703Z,4.63
2023-05-10T19:06:02.895Z,5.17
2023-05-10T19:08:31.473Z,4.87
2023-05-10T19:11:00.806Z,3.90
2023-05-10T19:13:30.269Z,3.20
2023-05-10T19:16:04.756Z,3.20
2023-05-10T19:18:33.250Z,4.37
2023-05-10T19:21:04.338Z,5.00
2023-05-10T19:23:32.972Z,4.43
2023-05-10T19:26:02.579Z,2.53
2023-05-10T19:28:30.637Z,2.37
2023-05-10T19:30:58.877Z,2.57
2023-05-10T19:33:26.851Z,3.10
2023-05-10T19:35:55.343Z,2.23
2023-05-10T19:38:23.458Z,3.63
2023-05-10T19:40:57.457Z,3.00
2023-05-10T19:43:27.054Z,2.90
2023-05-10T19:45:55.802Z,2.47
2023-05-10T19:48:23.744Z,2.10
2023-05-10T19:50:52.150Z,2.63
2023-05-10T19:53:20.269Z,2.80
2023-05-10T19:55:48.426Z,2.60
2023-05-10T19:58:16.719Z,2.17
2023-05-10T20:00:46.138Z,2.93
2023-05-10T20:03:14.335Z,2.80
2023-05-10T20:05:42.336Z,2.60
2023-05-10T20:08:10.288Z,2.27
2023-05-10T20:10:38.282Z,2.67
2023-05-10T20:13:06.240Z,2.97
2023-05-10T20:15:34.306Z,3.20
2023-05-10T20:18:04.380Z,3.60
2023-05-10T20:20:32.737Z,2.73
2023-05-10T20:23:00.863Z,2.70
2023-05-10T20:25:29.044Z,3.37
2023-05-10T20:27:57.075Z,2.60
2023-05-10T20:30:25.163Z,2.23
2023-05-10T20:32:53.146Z,2.80
2023-05-10T20:35:22.515Z,2.37
2023-05-10T20:37:50.449Z,2.47
2023-05-10T20:40:18.640Z,3.00
2023-05-10T20:42:47.505Z,2.80
2023-05-10T20:45:15.698Z,2.77
2023-05-10T20:47:44.095Z,2.00
2023-05-10T20:50:12.445Z,2.17
2023-05-10T20:52:41.694Z,2.53
2023-05-10T20:55:10.529Z,2.33
2023-05-10T20:57:38.481Z,2.40
2023-05-10T21:00:08.165Z,1.97
2023-05-10T21:02:36.234Z,2.30
2023-05-10T21:05:04.417Z,2.77
2023-05-10T21:07:32.869Z,2.40
2023-05-10T21:10:02.244Z,2.70
2023-05-10T21:12:30.306Z,2.03
2023-05-10T21:14:58.294Z,2.70
2023-05-10T21:17:26.350Z,2.50
2023-05-10T21:19:54.398Z,2.83
2023-05-10T21:22:22.360Z,2.40
2023-05-10T21:24:50.320Z,2.77
2023-05-10T21:27:19.621Z,3.00
2023-05-10T21:29:47.575Z,2.70
2023-05-10T21:32:15.863Z,3.17
2023-05-10T21:34:43.835Z,3.13
2023-05-10T21:37:11.828Z,2.53
2023-05-10T21:39:39.808Z,2.97
2023-05-10T21:42:07.857Z,2.83
2023-05-10T21:44:38.648Z,3.27
2023-05-10T21:47:06.651Z,2.70
2023-05-10T21:49:34.637Z,3.50
2023-05-10T21:52:02.613Z,2.60
2023-05-10T21:54:30.576Z,3.00
2023-05-10T21:56:59.156Z,3.07
2023-05-10T21:59:27.187Z,2.97
2023-05-10T22:01:56.569Z,3.13
2023-05-10T22:04:24.564Z,2.97
2023-05-10T22:06:52.522Z,3.00
2023-05-10T22:09:20.732Z,3.70
2023-05-10T22:11:48.723Z,3.40
2023-05-10T22:14:16.741Z,3.10
2023-05-10T22:16:44.815Z,2.70
2023-05-10T22:19:14.122Z,2.90
2023-05-10T22:21:42.478Z,2.80
2023-05-10T22:24:10.466Z,1.97
2023-05-10T22:26:38.409Z,2.33
2023-05-10T22:29:06.552Z,2.30
2023-05-10T22:31:34.801Z,1.80
2023-05-10T22:34:02.933Z,3.27
2023-05-10T22:36:32.743Z,3.10
2023-05-10T22:39:00.710Z,2.90
2023-05-10T22:41:28.644Z,3.60
2023-05-10T22:43:56.699Z,4.00
2023-05-10T22:46:24.660Z,3.27
2023-05-10T22:48:54.460Z,2.90
2023-05-10T22:51:23.049Z,2.90
2023-05-10T22:53:52.859Z,1.87
2023-05-10T22:56:21.791Z,2.60
2023-05-10T22:58:49.921Z,3.00
2023-05-10T23:01:17.974Z,1.90
2023-05-10T23:03:47.573Z,2.30
2023-05-10T23:06:15.714Z,1.90
2023-05-10T23:08:43.750Z,1.67
2023-05-10T23:11:13.069Z,3.33
2023-05-10T23:13:41.075Z,2.00
2023-05-10T23:16:09.335Z,1.97
2023-05-10T23:18:37.378Z,2.40
2023-05-10T23:21:05.850Z,2.10
2023-05-10T23:23:34.632Z,2.80
2023-05-10T23:26:04.154Z,2.50
2023-05-10T23:28:33.524Z,1.87
2023-05-10T23:31:01.639Z,2.23
2023-05-10T23:33:29.724Z,2.70
2023-05-10T23:35:57.741Z,2.40
2023-05-10T23:38:26.065Z,2.50
2023-05-10T23:40:54.389Z,2.30
2023-05-10T23:43:22.690Z,1.90
2023-05-10T23:45:55.733Z,1.70
2023-05-10T23:48:24.170Z,2.37
2023-05-10T23:50:52.121Z,2.37
2023-05-10T23:53:20.539Z,2.43
2023-05-10T23:55:48.694Z,2.13
2023-05-10T23:58:16.868Z,2.00
